Time;durP1;ratioP1;P1;durP2;ratioP2;P2;SDS_P1;SDS_P2;PMS_P1;PMS_P2;Temp;Humidity;BMP_temperature;BMP_pressure;BME280_temperature;BME280_humidity;BME280_pressure;Samples;Min_cycle;Max_cycle;Signal;HPM_P1;HPM_P2
2022/10/08 00:01:07;;;;;;;11.87;3.53;;;11.80;81.90;;;;;;5014399;28;20176;-89
2022/10/08 00:03:36;;;;;;;17.60;4.00;;;11.80;81.90;;;;;;5015314;28;20175;-89
2022/10/08 00:06:03;;;;;;;18.20;3.70;;;11.80;81.90;;;;;;5013806;28;20185;-88
2022/10/08 00:08:31;;;;;;;17.23;4.60;;;11.80;81.90;;;;;;5013938;28;20219;-88
2022/10/08 00:10:59;;;;;;;21.83;4.53;;;11.80;81.60;;;;;;5014729;28;20184;-88
2022/10/08 00:13:27;;;;;;;18.40;3.87;;;11.80;81.60;;;;;;5013530;28;20259;-88
2022/10/08 00:15:53;;;;;;;13.73;3.50;;;11.90;81.30;;;;;;5015091;28;20169;-88
2022/10/08 00:18:20;;;;;;;14.10;3.33;;;11.80;81.30;;;;;;5013548;28;20173;-88
2022/10/08 00:20:46;;;;;;;12.87;4.00;;;11.90;81.20;;;;;;5013190;28;20223;-88
2022/10/08 00:23:12;;;;;;;15.93;3.93;;;11.80;81.30;;;;;;5014695;28;20185;-88
2022/10/08 00:25:42;;;;;;;15.73;4.03;;;11.80;81.30;;;;;;5013505;28;20583;-89
2022/10/08 00:28:12;;;;;;;10.07;3.20;;;11.80;81.40;;;;;;5015066;28;20161;-89
2022/10/08 00:30:39;;;;;;;16.13;3.97;;;11.70;81.70;;;;;;5014612;28;20699;-88
2022/10/08 00:33:06;;;;;;;18.40;5.13;;;11.80;81.50;;;;;;5014867;28;20280;-88
2022/10/08 00:35:47;;;;;;;24.73;6.37;;;11.80;81.60;;;;;;5013144;28;20281;-86
2022/10/08 00:38:12;;;;;;;18.73;3.90;;;11.80;81.50;;;;;;5012993;28;20169;-88
2022/10/08 00:40:45;;;;;;;21.17;4.50;;;11.70;81.70;;;;;;5013226;28;20292;-89
2022/10/08 00:43:14;;;;;;;12.93;3.70;;;11.70;81.90;;;;;;5013288;28;20188;-88
2022/10/08 00:45:41;;;;;;;10.90;3.80;;;11.70;81.80;;;;;;5014295;28;20184;-89
2022/10/08 00:48:19;;;;;;;15.80;3.33;;;11.70;81.80;;;;;;5014125;28;20614;-87
2022/10/08 00:50:46;;;;;;;10.10;3.13;;;11.70;82.00;;;;;;5014039;28;20197;-87
2022/10/08 00:53:12;;;;;;;11.90;3.87;;;11.60;82.10;;;;;;5013213;28;20280;-87
2022/10/08 00:55:39;;;;;;;17.00;4.20;;;11.70;82.10;;;;;;5013644;28;20627;-87
2022/10/08 00:58:11;;;;;;;15.33;3.37;;;11.60;82.20;;;;;;5014163;28;20184;-87
2022/10/08 01:00:37;;;;;;;13.50;3.40;;;11.60;82.40;;;;;;5013881;28;20197;-87
2022/10/08 01:03:02;;;;;;;9.47;3.70;;;11.60;82.50;;;;;;5012725;28;20264;-87
2022/10/08 01:05:43;;;;;;;14.40;3.67;;;11.60;82.50;;;;;;5013885;28;20678;-87
2022/10/08 01:08:20;;;;;;;21.00;4.00;;;11.70;82.40;;;;;;5013847;28;20166;-87
2022/10/08 01:11:17;;;;;;;18.50;3.83;;;11.80;82.20;;;;;;5012531;28;20291;-87
2022/10/08 01:14:11;;;;;;;18.40;3.90;;;11.80;82.40;;;;;;5013930;28;20663;-88
2022/10/08 01:16:44;;;;;;;18.67;3.60;;;11.80;82.00;;;;;;5013683;28;20216;-87
2022/10/08 01:19:32;;;;;;;19.03;4.17;;;11.90;81.80;;;;;;5012212;28;20267;-87
2022/10/08 01:22:16;;;;;;;16.60;3.30;;;12.00;81.60;;;;;;5013714;28;20261;-87
2022/10/08 01:27:40;;;;;;;24.63;3.57;;;12.00;81.60;;;;;;5014193;28;20727;-87
2022/10/08 01:30:11;;;;;;;17.30;4.13;;;12.00;81.60;;;;;;5012210;28;20216;-87
2022/10/08 01:32:43;;;;;;;13.27;3.40;;;12.00;81.40;;;;;;5012312;28;20651;-87
2022/10/08 01:35:19;;;;;;;12.23;3.50;;;12.10;81.30;;;;;;5013698;28;20158;-87
2022/10/08 01:37:45;;;;;;;15.43;3.67;;;12.20;81.10;;;;;;5012355;28;20248;-87
2022/10/08 01:40:16;;;;;;;16.17;3.83;;;12.20;80.90;;;;;;5013371;28;20185;-87
2022/10/08 01:42:42;;;;;;;15.23;3.20;;;12.20;81.30;;;;;;5012115;28;20589;-87
2022/10/08 01:45:15;;;;;;;11.80;3.03;;;12.30;80.80;;;;;;5013418;28;20651;-87
2022/10/08 01:47:44;;;;;;;13.90;3.40;;;12.30;81.20;;;;;;5012195;28;20188;-87
2022/10/08 01:50:40;;;;;;;13.63;4.47;;;12.30;80.70;;;;;;5013252;28;20196;-87
2022/10/08 01:53:10;;;;;;;15.63;3.63;;;12.50;80.50;;;;;;5013212;28;20276;-87
2022/10/08 01:55:42;;;;;;;21.67;3.70;;;12.50;80.40;;;;;;5013549;28;20212;-87
2022/10/08 01:58:24;;;;;;;16.00;3.63;;;12.50;80.50;;;;;;5013289;28;20674;-87
2022/10/08 02:00:52;;;;;;;19.23;5.00;;;12.40;80.70;;;;;;5013310;28;20185;-87
2022/10/08 02:03:18;;;;;;;17.77;4.30;;;12.40;81.00;;;;;;5012115;28;20173;-87
2022/10/08 02:05:49;;;;;;;16.20;3.60;;;12.40;81.30;;;;;;5016021;28;20173;-88
2022/10/08 02:08:15;;;;;;;13.07;3.83;;;12.40;81.50;;;;;;5016741;28;20224;-87
2022/10/08 02:10:41;;;;;;;12.60;4.23;;;12.50;81.40;;;;;;5015747;28;20283;-87
2022/10/08 02:13:08;;;;;;;18.27;4.47;;;12.50;81.10;;;;;;5017162;28;20189;-87
2022/10/08 02:15:55;;;;;;;15.57;3.90;;;12.60;81.00;;;;;;5017211;28;20634;-87
2022/10/08 02:18:33;;;;;;;17.70;3.83;;;12.60;80.90;;;;;;5015694;28;20182;-87
2022/10/08 02:21:00;;;;;;;17.10;4.07;;;12.70;80.50;;;;;;5016885;28;20176;-87
2022/10/08 02:23:39;;;;;;;14.67;3.37;;;12.70;80.60;;;;;;5015777;28;20196;-87
2022/10/08 02:26:08;;;;;;;16.97;4.07;;;12.70;80.50;;;;;;5016770;28;20161;-87
2022/10/08 02:28:58;;;;;;;15.33;4.00;;;12.70;80.80;;;;;;5015435;28;20200;-87
2022/10/08 02:31:46;;;;;;;14.60;3.90;;;12.70;80.50;;;;;;5016563;28;20177;-87
2022/10/08 02:34:14;;;;;;;16.93;4.07;;;12.70;80.60;;;;;;5015354;28;20247;-87
2022/10/08 02:36:43;;;;;;;14.93;3.53;;;12.70;80.60;;;;;;5015393;28;20181;-87
2022/10/08 02:39:11;;;;;;;17.57;4.33;;;12.70;80.90;;;;;;5016452;28;20201;-87
2022/10/08 02:41:41;;;;;;;17.87;4.13;;;12.70;80.70;;;;;;5015154;28;20724;-87
2022/10/08 02:44:25;;;;;;;15.30;3.27;;;12.70;81.00;;;;;;5015599;28;20180;-88
2022/10/08 02:46:54;;;;;;;16.57;4.27;;;12.70;80.90;;;;;;5016396;28;20162;-87
2022/10/08 02:49:26;;;;;;;16.23;4.10;;;12.70;81.00;;;;;;5015030;28;20566;-87
2022/10/08 02:51:54;;;;;;;16.17;3.30;;;12.70;81.00;;;;;;5016346;28;20173;-87
2022/10/08 02:54:21;;;;;;;13.83;3.93;;;12.80;80.90;;;;;;5014975;28;20205;-88
2022/10/08 02:57:04;;;;;;;14.23;4.33;;;12.70;80.80;;;;;;5016185;28;20216;-88
2022/10/08 02:59:31;;;;;;;12.40;4.37;;;12.70;81.10;;;;;;5015277;28;20531;-87
2022/10/08 03:01:59;;;;;;;19.97;4.67;;;12.70;81.50;;;;;;5014814;28;20180;-88
2022/10/08 03:04:39;;;;;;;20.13;4.70;;;12.60;81.70;;;;;;5014914;28;20185;-87
2022/10/08 03:07:06;;;;;;;15.87;3.90;;;12.60;81.90;;;;;;5016024;28;20161;-87
2022/10/08 03:09:36;;;;;;;12.27;3.60;;;12.50;82.20;;;;;;5015879;28;20629;-87
2022/10/08 03:12:02;;;;;;;20.10;4.03;;;12.50;82.20;;;;;;5016036;28;20232;-87
2022/10/08 03:14:29;;;;;;;21.13;5.90;;;12.50;82.20;;;;;;5014706;28;20185;-87
2022/10/08 03:16:55;;;;;;;12.10;4.27;;;12.50;82.40;;;;;;5014992;28;20201;-88
2022/10/08 03:19:21;;;;;;;14.17;5.07;;;12.50;82.50;;;;;;5015856;28;20687;-87
2022/10/08 03:21:51;;;;;;;12.27;4.80;;;12.40;82.40;;;;;;5014506;28;20179;-88
2022/10/08 03:24:16;;;;;;;14.17;4.27;;;12.40;82.50;;;;;;5015656;28;20204;-87
2022/10/08 03:26:42;;;;;;;22.70;4.57;;;12.30;82.50;;;;;;5014440;28;20205;-87
2022/10/08 03:29:09;;;;;;;20.30;4.40;;;12.40;82.60;;;;;;5015776;28;20617;-87
2022/10/08 03:31:34;;;;;;;20.70;5.47;;;12.40;83.10;;;;;;5015816;28;20349;-87
2022/10/08 03:34:00;;;;;;;17.90;4.47;;;12.30;83.60;;;;;;5014171;28;20201;-87
2022/10/08 03:36:26;;;;;;;20.07;5.30;;;12.20;84.70;;;;;;5014335;28;20262;-87
2022/10/08 03:38:51;;;;;;;13.30;4.60;;;12.00;85.10;;;;;;5015797;28;20190;-87
2022/10/08 03:41:18;;;;;;;16.33;5.00;;;12.00;85.30;;;;;;5014210;28;20177;-87
2022/10/08 03:43:44;;;;;;;19.50;4.97;;;12.00;85.20;;;;;;5014144;28;20227;-87
2022/10/08 03:46:12;;;;;;;12.00;4.63;;;12.10;85.00;;;;;;5014000;28;20330;-87
2022/10/08 03:48:38;;;;;;;20.90;4.80;;;12.00;85.10;;;;;;5015168;28;20184;-85
2022/10/08 03:51:07;;;;;;;21.10;4.80;;;12.00;84.90;;;;;;5015194;28;20209;-87
2022/10/08 03:53:35;;;;;;;18.73;4.80;;;12.00;85.20;;;;;;5015031;28;20248;-87
2022/10/08 03:56:02;;;;;;;13.60;4.10;;;12.00;85.10;;;;;;5013919;28;20216;-87
2022/10/08 03:58:28;;;;;;;20.60;4.77;;;11.90;85.30;;;;;;5013750;28;20664;-87
2022/10/08 04:00:59;;;;;;;15.90;4.90;;;12.00;85.30;;;;;;5014098;28;20185;-87
2022/10/08 04:03:25;;;;;;;19.33;5.37;;;12.00;85.50;;;;;;5014879;28;20196;-87
2022/10/08 04:05:51;;;;;;;18.20;4.27;;;11.90;85.40;;;;;;5013711;28;20189;-87
2022/10/08 04:08:17;;;;;;;11.27;3.77;;;11.90;85.60;;;;;;5013567;28;20643;-87
2022/10/08 04:10:42;;;;;;;17.03;4.83;;;12.00;85.30;;;;;;5014696;28;20254;-87
2022/10/08 04:13:08;;;;;;;14.97;4.40;;;12.00;85.10;;;;;;5013430;28;20204;-87
2022/10/08 04:15:33;;;;;;;16.43;4.60;;;12.10;84.80;;;;;;5013510;28;20174;-87
2022/10/08 04:17:59;;;;;;;16.07;4.43;;;12.00;85.10;;;;;;5014589;28;20177;-87
2022/10/08 04:20:25;;;;;;;22.53;4.43;;;12.00;85.30;;;;;;5014701;28;20213;-87
2022/10/08 04:22:50;;;;;;;15.73;4.43;;;12.00;85.40;;;;;;5014585;28;20173;-87
2022/10/08 04:25:16;;;;;;;17.93;4.20;;;11.90;85.70;;;;;;5014497;28;20648;-87
2022/10/08 04:27:41;;;;;;;16.33;4.00;;;12.00;85.70;;;;;;5014738;28;20181;-87
2022/10/08 04:30:07;;;;;;;17.37;4.63;;;11.90;85.80;;;;;;5013137;28;20675;-87
2022/10/08 04:32:33;;;;;;;10.50;3.97;;;11.90;86.20;;;;;;5014272;28;20260;-87
2022/10/08 04:34:59;;;;;;;14.53;4.33;;;11.80;86.50;;;;;;5014404;28;20177;-87
2022/10/08 04:37:24;;;;;;;18.93;4.50;;;11.80;86.70;;;;;;5014381;28;20185;-87
2022/10/08 04:39:50;;;;;;;11.63;4.57;;;11.70;87.00;;;;;;5014464;28;20190;-87
2022/10/08 04:42:15;;;;;;;19.23;5.77;;;11.70;87.10;;;;;;5013528;28;20181;-87
2022/10/08 04:44:41;;;;;;;18.30;4.63;;;11.70;87.20;;;;;;5014181;28;20173;-87
2022/10/08 04:47:07;;;;;;;15.93;4.67;;;11.70;87.10;;;;;;5012974;28;20635;-87
2022/10/08 04:49:32;;;;;;;16.50;4.53;;;11.70;87.20;;;;;;5012839;28;20197;-87
2022/10/08 04:51:57;;;;;;;15.97;4.30;;;11.70;87.30;;;;;;5012869;28;20185;-87
2022/10/08 04:54:23;;;;;;;15.80;4.53;;;11.50;87.50;;;;;;5013981;28;20550;-87
2022/10/08 04:56:49;;;;;;;11.83;4.30;;;11.50;87.40;;;;;;5014182;28;20181;-87
2022/10/08 04:59:14;;;;;;;17.00;4.33;;;11.50;87.50;;;;;;5014067;28;20695;-87
2022/10/08 05:01:40;;;;;;;15.23;4.10;;;11.30;87.50;;;;;;5013911;28;20618;-87
2022/10/08 05:04:05;;;;;;;13.67;4.80;;;11.30;87.70;;;;;;5013841;28;20187;-87
2022/10/08 05:06:31;;;;;;;14.47;4.63;;;11.30;87.80;;;;;;5012581;28;20191;-87
2022/10/08 05:09:01;;;;;;;15.20;4.97;;;11.30;88.00;;;;;;5012561;28;20201;-87
2022/10/08 05:11:27;;;;;;;15.47;5.00;;;11.30;88.10;;;;;;5012872;28;20185;-87
2022/10/08 05:13:54;;;;;;;17.53;5.07;;;11.30;88.00;;;;;;5012507;28;20255;-87
2022/10/08 05:16:21;;;;;;;14.33;4.77;;;11.30;87.90;;;;;;5012377;28;20188;-87
2022/10/08 05:18:49;;;;;;;19.37;5.40;;;11.30;87.90;;;;;;5012217;28;20189;-87
2022/10/08 05:21:23;;;;;;;15.33;4.67;;;11.40;87.90;;;;;;5013683;28;20157;-87
2022/10/08 05:24:03;;;;;;;14.50;4.93;;;11.30;88.00;;;;;;5013603;28;20165;-87
2022/10/08 05:26:31;;;;;;;20.23;4.70;;;11.30;88.00;;;;;;5012541;28;20183;-87
2022/10/08 05:28:58;;;;;;;14.63;4.50;;;11.30;88.00;;;;;;5012410;28;20722;-87
2022/10/08 05:31:25;;;;;;;14.67;4.37;;;11.30;88.20;;;;;;5012324;28;20185;-87
2022/10/08 05:33:51;;;;;;;18.63;6.00;;;11.30;88.20;;;;;;5012532;28;20262;-85
2022/10/08 05:36:28;;;;;;;16.93;6.03;;;11.30;88.30;;;;;;5012227;28;20181;-88
2022/10/08 05:38:57;;;;;;;15.33;4.57;;;11.20;88.30;;;;;;5012840;28;20204;-87
2022/10/08 05:41:26;;;;;;;19.47;6.23;;;11.20;88.40;;;;;;5019940;28;20181;-87
2022/10/08 05:43:56;;;;;;;18.90;4.77;;;11.20;88.40;;;;;;5020030;28;20169;-87
2022/10/08 05:46:26;;;;;;;12.57;4.90;;;11.20;88.50;;;;;;5019967;28;20550;-87
2022/10/08 05:48:56;;;;;;;20.63;5.23;;;11.20;88.60;;;;;;5018554;28;20204;-87
2022/10/08 05:51:23;;;;;;;12.37;4.67;;;11.20;88.70;;;;;;5020202;28;20169;-87
2022/10/08 05:53:50;;;;;;;13.27;4.73;;;11.20;88.70;;;;;;5018615;28;20205;-87
2022/10/08 05:56:18;;;;;;;13.03;4.27;;;11.20;88.80;;;;;;5018737;28;20177;-87
2022/10/08 05:58:45;;;;;;;15.33;4.63;;;11.20;88.90;;;;;;5018538;28;20268;-87
2022/10/08 06:01:22;;;;;;;20.70;6.60;;;11.20;88.80;;;;;;5019809;28;20181;-87
2022/10/08 06:03:50;;;;;;;20.87;5.47;;;11.20;88.80;;;;;;5019820;28;20240;-87
2022/10/08 06:06:16;;;;;;;16.30;4.90;;;11.30;88.90;;;;;;5018561;28;20177;-86
2022/10/08 06:08:41;;;;;;;16.30;4.90;;;11.30;89.00;;;;;;5018450;28;20216;-87
2022/10/08 06:11:07;;;;;;;20.10;5.83;;;11.30;89.00;;;;;;5018581;28;20553;-87
2022/10/08 06:13:33;;;;;;;17.73;5.03;;;11.30;89.00;;;;;;5019563;28;20197;-88
2022/10/08 06:15:59;;;;;;;15.90;5.10;;;11.30;89.00;;;;;;5019660;28;20177;-86
2022/10/08 06:18:27;;;;;;;15.87;4.97;;;11.30;89.00;;;;;;5019641;28;20181;-87
2022/10/08 06:20:53;;;;;;;16.20;5.17;;;11.30;89.10;;;;;;5018675;28;20201;-87
2022/10/08 06:23:20;;;;;;;21.03;6.43;;;11.30;89.30;;;;;;5018464;28;20778;-87
2022/10/08 06:25:46;;;;;;;17.57;5.43;;;11.30;89.30;;;;;;5019545;28;20192;-87
2022/10/08 06:28:11;;;;;;;19.13;5.00;;;11.20;89.40;;;;;;5019539;28;20170;-87
2022/10/08 06:30:41;;;;;;;14.57;4.73;;;11.20;89.40;;;;;;5019462;28;20193;-87
2022/10/08 06:33:07;;;;;;;20.17;6.27;;;11.20;89.60;;;;;;5018128;28;20197;-87
2022/10/08 06:35:33;;;;;;;20.83;5.13;;;11.20;89.70;;;;;;5018424;28;20173;-87
2022/10/08 06:37:59;;;;;;;18.10;4.87;;;11.20;89.90;;;;;;5019715;28;20169;-86
2022/10/08 06:40:24;;;;;;;17.10;5.47;;;11.20;89.90;;;;;;5018090;28;20200;-87
2022/10/08 06:42:50;;;;;;;15.10;5.37;;;11.20;90.00;;;;;;5019547;28;20177;-87
2022/10/08 06:45:16;;;;;;;16.57;5.27;;;11.20;90.20;;;;;;5019478;28;20639;-86
2022/10/08 06:47:41;;;;;;;18.90;4.87;;;11.20;90.30;;;;;;5018283;28;20181;-88
2022/10/08 06:50:07;;;;;;;18.33;5.10;;;11.30;90.30;;;;;;5019319;28;20243;-86
2022/10/08 06:52:33;;;;;;;20.47;5.53;;;11.30;90.30;;;;;;5014904;28;20208;-87
2022/10/08 06:54:58;;;;;;;13.10;5.20;;;11.40;90.30;;;;;;5015065;28;20181;-87
2022/10/08 06:57:23;;;;;;;16.33;4.67;;;11.40;90.30;;;;;;5016263;28;20239;-86
2022/10/08 06:59:53;;;;;;;17.20;5.33;;;11.50;90.20;;;;;;5016107;28;20190;-86
2022/10/08 07:02:19;;;;;;;18.90;4.60;;;11.50;90.20;;;;;;5016398;28;20311;-87
2022/10/08 07:04:44;;;;;;;19.20;5.00;;;11.60;90.20;;;;;;5014816;28;20212;-86
2022/10/08 07:07:10;;;;;;;13.03;4.40;;;11.70;90.20;;;;;;5014770;28;20170;-87
2022/10/08 07:09:35;;;;;;;19.20;5.00;;;11.70;90.10;;;;;;5016234;28;20760;-87
2022/10/08 07:12:01;;;;;;;10.10;5.00;;;11.70;90.10;;;;;;5015045;28;20251;-87
2022/10/08 07:14:26;;;;;;;22.47;5.33;;;11.80;90.10;;;;;;5014615;28;20580;-87
2022/10/08 07:16:52;;;;;;;16.73;4.60;;;11.90;89.90;;;;;;5016072;28;20173;-87
2022/10/08 07:19:17;;;;;;;18.60;5.23;;;11.90;90.00;;;;;;5014522;28;20295;-87
2022/10/08 07:21:43;;;;;;;9.43;4.97;;;12.00;89.90;;;;;;5015757;28;20185;-87
2022/10/08 07:24:08;;;;;;;12.47;4.70;;;12.10;89.90;;;;;;5014458;28;20190;-87
2022/10/08 07:26:34;;;;;;;15.87;4.57;;;12.20;89.70;;;;;;5014397;28;20276;-87
2022/10/08 07:29:03;;;;;;;19.03;5.40;;;12.20;89.70;;;;;;5015507;28;20201;-87
2022/10/08 07:31:31;;;;;;;12.67;4.77;;;12.20;89.50;;;;;;5014350;28;20651;-85
2022/10/08 07:33:58;;;;;;;20.43;5.60;;;12.30;89.30;;;;;;5015625;28;20267;-87
2022/10/08 07:36:25;;;;;;;9.80;4.30;;;12.30;89.10;;;;;;5016021;28;20260;-88
2022/10/08 07:38:58;;;;;;;16.20;4.57;;;12.30;89.10;;;;;;5016383;28;20207;-88
2022/10/08 07:41:25;;;;;;;17.47;4.37;;;12.20;88.80;;;;;;5015081;28;20223;-88
2022/10/08 07:43:52;;;;;;;15.90;3.90;;;12.20;88.80;;;;;;5015153;28;20264;-88
2022/10/08 07:46:18;;;;;;;13.90;3.77;;;12.30;88.80;;;;;;5014759;28;20177;-88
2022/10/08 07:48:43;;;;;;;11.03;4.13;;;12.40;88.80;;;;;;5014760;28;20205;-88
2022/10/08 07:51:11;;;;;;;12.13;3.57;;;12.60;88.50;;;;;;5014833;28;20185;-88
2022/10/08 07:53:37;;;;;;;13.40;3.63;;;12.70;87.80;;;;;;5015808;28;20197;-88
2022/10/08 07:56:03;;;;;;;6.70;3.33;;;12.70;87.60;;;;;;5014598;28;20182;-88
2022/10/08 07:58:29;;;;;;;12.67;3.67;;;12.70;87.40;;;;;;5014546;28;20182;-88
2022/10/08 08:00:59;;;;;;;16.47;3.83;;;12.80;87.20;;;;;;5016096;28;20181;-89
2022/10/08 08:03:25;;;;;;;9.13;3.17;;;12.90;87.00;;;;;;5015082;28;20181;-88
2022/10/08 08:05:52;;;;;;;9.47;3.27;;;13.00;86.60;;;;;;5014501;28;20217;-88
2022/10/08 08:08:24;;;;;;;14.97;3.40;;;13.10;86.60;;;;;;5016243;28;20169;-88
2022/10/08 08:10:56;;;;;;;11.37;3.10;;;13.10;85.80;;;;;;5015614;28;20232;-88
2022/10/08 08:13:22;;;;;;;8.03;3.03;;;13.20;85.40;;;;;;5015185;28;20281;-88
2022/10/08 08:15:54;;;;;;;13.90;3.60;;;13.40;85.50;;;;;;5014460;28;20276;-89
2022/10/08 08:18:19;;;;;;;11.37;2.40;;;13.40;85.00;;;;;;5014265;28;20180;-88
2022/10/08 08:20:45;;;;;;;15.87;2.67;;;13.40;84.10;;;;;;5015043;28;20225;-88
2022/10/08 08:23:10;;;;;;;14.07;3.17;;;13.50;84.90;;;;;;5015548;28;20690;-89
2022/10/08 08:25:36;;;;;;;16.70;3.00;;;13.60;84.20;;;;;;5014622;28;20231;-88
2022/10/08 08:28:01;;;;;;;15.37;3.00;;;13.70;84.60;;;;;;5015181;28;20180;-88
2022/10/08 08:30:27;;;;;;;12.23;3.10;;;13.70;83.70;;;;;;5015057;28;20553;-88
2022/10/08 08:32:52;;;;;;;14.37;2.97;;;13.60;83.90;;;;;;5014876;28;20292;-89
2022/10/08 08:35:18;;;;;;;10.70;2.80;;;13.50;84.30;;;;;;5013885;28;20173;-88
2022/10/08 08:37:43;;;;;;;16.13;3.43;;;13.50;84.00;;;;;;5013785;28;20572;-87
2022/10/08 08:40:09;;;;;;;9.43;2.93;;;13.70;84.10;;;;;;5014874;28;20185;-88
2022/10/08 08:42:47;;;;;;;12.77;4.10;;;13.80;83.70;;;;;;5014913;28;20188;-88
2022/10/08 08:45:29;;;;;;;10.57;2.67;;;13.80;83.50;;;;;;5013652;28;20664;-88
2022/10/08 08:48:14;;;;;;;13.47;2.33;;;13.80;83.10;;;;;;5014317;28;20632;-89
2022/10/08 08:50:41;;;;;;;14.13;3.47;;;13.90;82.40;;;;;;5013483;28;20209;-88
2022/10/08 08:53:09;;;;;;;11.53;2.70;;;14.00;82.80;;;;;;5014630;28;20209;-88
2022/10/08 08:55:47;;;;;;;10.47;3.27;;;14.20;82.60;;;;;;5014804;28;20247;-88
2022/10/08 08:58:22;;;;;;;11.60;2.90;;;14.10;82.30;;;;;;5013451;28;20260;-88
2022/10/08 09:01:13;;;;;;;8.10;2.30;;;14.00;82.40;;;;;;5014617;28;20197;-88
2022/10/08 09:03:44;;;;;;;8.90;2.33;;;14.20;81.60;;;;;;5014663;28;20188;-88
2022/10/08 09:06:13;;;;;;;9.23;2.00;;;14.30;80.60;;;;;;5012712;28;20177;-88
2022/10/08 09:09:24;;;;;;;10.93;1.93;;;14.40;79.70;;;;;;5013781;28;20185;-88
2022/10/08 09:11:50;;;;;;;6.47;1.90;;;14.40;78.70;;;;;;4934163;29;20184;-88
2022/10/08 09:14:33;;;;;;;8.63;1.87;;;14.30;77.10;;;;;;4933639;29;20215;-88
2022/10/08 09:17:08;;;;;;;7.57;1.53;;;14.30;76.50;;;;;;4984547;28;20242;-88
2022/10/08 09:19:35;;;;;;;11.90;1.87;;;14.40;75.20;;;;;;5012383;28;20216;-88
2022/10/08 09:22:00;;;;;;;4.30;1.77;;;14.20;75.20;;;;;;5013699;28;20173;-88
2022/10/08 09:24:28;;;;;;;6.57;1.60;;;14.30;75.80;;;;;;5013688;28;20548;-88
2022/10/08 09:26:55;;;;;;;6.90;1.87;;;14.40;76.30;;;;;;5013573;28;20196;-88
2022/10/08 09:29:38;;;;;;;7.77;2.00;;;14.50;75.80;;;;;;5013453;28;20221;-88
2022/10/08 09:32:04;;;;;;;9.20;1.80;;;14.50;75.60;;;;;;5012385;28;20264;-88
2022/10/08 09:34:30;;;;;;;7.47;1.70;;;14.70;76.00;;;;;;5013453;28;20289;-88
2022/10/08 09:37:03;;;;;;;6.77;1.77;;;14.80;74.80;;;;;;5012530;28;20181;-88
2022/10/08 09:39:31;;;;;;;6.80;2.10;;;14.80;74.80;;;;;;5012245;28;20271;-88
2022/10/08 09:42:06;;;;;;;5.07;1.60;;;15.00;73.90;;;;;;5012506;28;20173;-87
2022/10/08 09:45:02;;;;;;;4.23;1.83;;;15.00;73.50;;;;;;5013675;28;20182;-88
2022/10/08 09:47:31;;;;;;;6.10;1.40;;;15.10;71.40;;;;;;4997272;28;20664;-88
2022/10/08 09:50:17;;;;;;;3.73;1.40;;;15.10;71.40;;;;;;5013386;28;20207;-88
2022/10/08 09:52:45;;;;;;;6.70;1.80;;;15.20;71.90;;;;;;5013329;28;20239;-88
2022/10/08 09:55:25;;;;;;;9.17;1.80;;;15.30;70.00;;;;;;5013386;28;20173;-89
2022/10/08 09:57:56;;;;;;;6.73;1.60;;;15.30;71.70;;;;;;5013314;28;20161;-88
2022/10/08 10:00:30;;;;;;;4.83;1.43;;;15.00;68.80;;;;;;5013283;28;20204;-88
2022/10/08 10:02:58;;;;;;;5.47;1.30;;;15.30;70.10;;;;;;5013218;28;20200;-89
2022/10/08 10:05:27;;;;;;;4.85;1.42;;;15.20;69.00;;;;;;5012108;28;20189;-89
2022/10/08 10:07:53;;;;;;;6.88;1.50;;;15.10;68.40;;;;;;5012022;28;20232;-88
2022/10/08 10:10:18;;;;;;;8.00;1.20;;;15.20;68.30;;;;;;5012387;28;20201;-89
2022/10/08 10:12:49;;;;;;;6.75;1.48;;;15.40;67.10;;;;;;5013059;28;20205;-88
2022/10/08 10:15:19;;;;;;;8.80;2.50;;;15.10;67.10;;;;;;5013468;28;20173;-88
2022/10/08 10:17:55;;;;;;;5.00;1.10;;;15.10;69.30;;;;;;5011987;28;20635;-88
2022/10/08 10:20:44;;;;;;;5.07;1.30;;;15.30;70.30;;;;;;5012976;28;20220;-88
2022/10/08 10:23:14;;;;;;;2.67;1.17;;;15.10;67.90;;;;;;5011940;28;20651;-89
2022/10/08 10:25:45;;;;;;;3.70;1.10;;;15.00;68.00;;;;;;5012885;28;20212;-88
2022/10/08 10:28:19;;;;;;;6.40;1.15;;;14.80;69.00;;;;;;5015608;28;20177;-87
2022/10/08 10:30:53;;;;;;;5.40;1.60;;;14.60;71.10;;;;;;5015372;28;20200;-87
2022/10/08 10:33:27;;;;;;;5.23;1.03;;;14.80;72.20;;;;;;5015367;28;20201;-87
2022/10/08 10:35:58;;;;;;;4.40;1.27;;;14.90;72.70;;;;;;5016386;28;20169;-87
2022/10/08 10:38:34;;;;;;;3.60;1.40;;;14.80;71.20;;;;;;5015329;28;20192;-87
2022/10/08 10:41:14;;;;;;;5.50;1.20;;;14.80;72.30;;;;;;5015395;28;20628;-87
2022/10/08 10:43:47;;;;;;;5.63;1.47;;;14.70;72.40;;;;;;5015326;28;20166;-87
2022/10/08 10:46:22;;;;;;;5.17;1.50;;;14.30;71.80;;;;;;5016437;28;20184;-87
2022/10/08 10:48:48;;;;;;;7.80;2.03;;;12.80;76.00;;;;;;5015160;28;20177;-85
2022/10/08 10:51:33;;;;;;;7.90;1.80;;;12.20;80.60;;;;;;5016308;28;20173;-88
2022/10/08 10:54:12;;;;;;;11.40;2.50;;;11.70;83.50;;;;;;5015054;28;20201;-88
2022/10/08 10:56:55;;;;;;;7.53;2.03;;;11.80;84.30;;;;;;5016589;28;20154;-89
2022/10/08 10:59:33;;;;;;;7.97;2.37;;;11.30;87.10;;;;;;5015541;28;20214;-90
2022/10/08 11:02:45;;;;;;;6.53;1.90;;;11.30;88.10;;;;;;5015823;28;20173;-91
2022/10/08 11:05:14;;;;;;;6.17;1.50;;;11.50;88.20;;;;;;4921040;29;20222;-90
2022/10/08 11:08:01;;;;;;;3.47;1.20;;;11.20;87.60;;;;;;5005381;28;20244;-90
2022/10/08 11:10:39;;;;;;;4.77;1.30;;;11.30;87.70;;;;;;5015968;28;20205;-90
2022/10/08 11:13:28;;;;;;;4.07;1.20;;;11.30;87.30;;;;;;5016131;28;20280;-90
2022/10/08 11:16:08;;;;;;;2.00;1.13;;;11.60;87.30;;;;;;5014836;28;20165;-90
2022/10/08 11:18:50;;;;;;;1.53;1.00;;;12.10;87.20;;;;;;5015753;28;20531;-90
2022/10/08 11:21:35;;;;;;;1.17;0.97;;;12.30;85.80;;;;;;5015505;28;20177;-90
2022/10/08 11:24:33;;;;;;;2.47;1.00;;;12.70;83.90;;;;;;5016077;28;20176;-91
2022/10/08 11:27:28;;;;;;;4.70;1.10;;;12.90;84.10;;;;;;5015777;28;20169;-91
2022/10/08 11:29:59;;;;;;;2.67;1.20;;;13.00;82.30;;;;;;5015870;28;20615;-90
2022/10/08 11:32:25;;;;;;;5.20;1.30;;;13.20;82.70;;;;;;5015661;28;20531;-90
2022/10/08 11:35:10;;;;;;;2.23;1.00;;;13.30;81.90;;;;;;5014467;28;20546;-90
2022/10/08 11:37:39;;;;;;;3.37;1.10;;;13.60;81.80;;;;;;5015323;28;20711;-88
2022/10/08 11:40:27;;;;;;;3.00;1.30;;;13.70;81.00;;;;;;5015653;28;20264;-90
2022/10/08 11:43:08;;;;;;;3.80;1.03;;;14.10;82.70;;;;;;5014685;28;20181;-90
2022/10/08 11:45:38;;;;;;;4.77;2.00;;;14.30;81.40;;;;;;5014329;28;20242;-91
2022/10/08 11:48:23;;;;;;;2.37;1.20;;;14.50;81.90;;;;;;5015228;28;20227;-89
2022/10/08 11:50:48;;;;;;;7.30;1.20;;;14.30;79.80;;;;;;5014489;28;20283;-89
2022/10/08 11:53:20;;;;;;;3.23;1.00;;;14.20;79.60;;;;;;5014853;28;20628;-90
2022/10/08 11:55:52;;;;;;;3.07;1.10;;;14.50;80.20;;;;;;5014429;28;20180;-89
2022/10/08 11:58:22;;;;;;;2.87;0.90;;;14.20;77.00;;;;;;5015387;28;20174;-89
2022/10/08 12:00:50;;;;;;;3.23;1.10;;;14.20;78.20;;;;;;5014357;28;20231;-89
2022/10/08 12:03:25;;;;;;;5.27;1.43;;;14.50;77.60;;;;;;5014053;28;20181;-89
2022/10/08 12:05:54;;;;;;;4.93;1.70;;;14.50;78.10;;;;;;5015502;28;20153;-90
2022/10/08 12:08:51;;;;;;;4.03;1.40;;;14.90;78.10;;;;;;5014190;28;20647;-90
2022/10/08 12:11:36;;;;;;;8.15;1.50;;;15.30;78.30;;;;;;5014163;28;20173;-91
2022/10/08 12:14:11;;;;;;;6.07;1.48;;;15.70;77.60;;;;;;5013999;28;20212;-89
2022/10/08 12:16:55;;;;;;;10.20;1.60;;;15.60;76.50;;;;;;5015064;28;20173;-89
2022/10/08 12:19:32;;;;;;;10.52;2.22;;;15.80;75.20;;;;;;5013677;28;20962;-88
2022/10/08 12:22:27;;;;;;;6.43;1.30;;;15.60;75.20;;;;;;5013569;28;20189;-89
2022/10/08 12:24:57;;;;;;;9.05;1.40;;;14.80;74.80;;;;;;5013404;28;20184;-90
2022/10/08 12:27:27;;;;;;;4.45;0.90;;;14.80;72.80;;;;;;5013502;28;20224;-92
2022/10/08 12:29:53;;;;;;;2.72;0.90;;;15.00;67.90;;;;;;5013380;28;20251;-89
2022/10/08 12:32:20;;;;;;;3.83;1.10;;;14.80;68.90;;;;;;5013451;28;20181;-89
2022/10/08 12:34:45;;;;;;;8.43;1.63;;;14.80;67.20;;;;;;5013128;28;20220;-89
2022/10/08 12:37:17;;;;;;;5.40;1.90;;;15.00;70.80;;;;;;5014355;28;20174;-89
2022/10/08 12:39:44;;;;;;;16.27;3.60;;;15.20;71.40;;;;;;5014331;28;20609;-89
2022/10/08 12:42:47;;;;;;;9.18;1.85;;;15.50;74.20;;;;;;5013130;28;20177;-89
2022/10/08 12:45:33;;;;;;;6.95;1.50;;;15.70;74.10;;;;;;4918962;29;20176;-90
2022/10/08 12:48:17;;;;;;;12.85;1.85;;;15.30;73.10;;;;;;5024670;28;20527;-89
2022/10/08 12:50:51;;;;;;;9.25;2.58;;;15.20;75.00;;;;;;5012399;28;20244;-89
2022/10/08 12:53:17;;;;;;;12.70;1.83;;;15.40;74.70;;;;;;5013238;28;20327;-89
2022/10/08 12:55:51;;;;;;;9.55;1.48;;;15.50;75.30;;;;;;5013181;28;20181;-88
2022/10/08 12:58:22;;;;;;;6.00;1.63;;;14.90;73.60;;;;;;5013605;28;20176;-89
2022/10/08 13:00:54;;;;;;;11.45;1.80;;;14.90;75.60;;;;;;5012744;28;20566;-89
2022/10/08 13:03:20;;;;;;;12.48;2.42;;;14.80;75.60;;;;;;5013934;28;20252;-90